Time;durP1;ratioP1;P1;durP2;ratioP2;P2;SDS_P1;SDS_P2;PMS_P1;PMS_P2;Temp;Humidity;BMP_temperature;BMP_pressure;BME280_temperature;BME280_humidity;BME280_pressure;Samples;Min_cycle;Max_cycle;Signal;HPM_P1;HPM_P2
2021/12/03 00:00:25;;;;;;;7.32;4.07;;;;;;;-1.65;97.79;100186.97;4994546;28;20395;-85
2021/12/03 00:02:53;;;;;;;6.75;3.83;;;;;;;-1.61;96.89;100184.53;5018535;28;20053;-85
2021/12/03 00:05:20;;;;;;;8.38;3.80;;;;;;;-1.60;96.59;100180.25;5016939;28;20107;-85
2021/12/03 00:07:47;;;;;;;7.28;4.20;;;;;;;-1.60;97.00;100181.16;5012022;28;20498;-84
2021/12/03 00:10:19;;;;;;;5.05;3.97;;;;;;;-1.54;96.82;100188.19;4998378;28;20045;-84
2021/12/03 00:12:51;;;;;;;9.10;4.03;;;;;;;-1.51;96.90;100184.03;5016075;28;20049;-84
2021/12/03 00:15:18;;;;;;;7.65;4.05;;;;;;;-1.43;96.28;100175.72;5016129;28;20948;-85
2021/12/03 00:17:45;;;;;;;8.45;4.22;;;;;;;-1.42;96.09;100175.75;5001785;28;20053;-85
2021/12/03 00:20:15;;;;;;;7.32;4.28;;;;;;;-1.37;96.55;100163.94;4993290;28;20038;-85
2021/12/03 00:22:48;;;;;;;8.77;3.85;;;;;;;-1.31;95.92;100159.81;4999863;28;20127;-85
2021/12/03 00:25:15;;;;;;;9.57;4.10;;;;;;;-1.33;96.35;100167.44;5017107;28;20045;-85
2021/12/03 00:27:43;;;;;;;7.95;4.15;;;;;;;-1.32;96.31;100166.63;4992786;28;20042;-85
2021/12/03 00:30:13;;;;;;;7.15;4.25;;;;;;;-1.27;95.35;100162.50;5013294;28;20037;-85
2021/12/03 00:32:41;;;;;;;5.15;3.88;;;;;;;-1.24;95.39;100161.72;5010705;28;20383;-85
2021/12/03 00:35:10;;;;;;;5.68;3.80;;;;;;;-1.25;94.89;100171.16;5012993;28;20099;-85
2021/12/03 00:37:38;;;;;;;8.02;6.22;;;;;;;-1.23;94.36;100166.06;5016426;28;20060;-83
2021/12/03 00:40:08;;;;;;;6.18;4.75;;;;;;;-1.24;93.44;100156.59;5016100;28;20486;-85
2021/12/03 00:42:35;;;;;;;6.68;3.95;;;;;;;-1.29;93.89;100164.19;4991168;28;20562;-85
2021/12/03 00:45:02;;;;;;;7.65;4.47;;;;;;;-1.30;92.74;100158.97;5027887;28;20060;-85
2021/12/03 00:47:29;;;;;;;8.15;4.32;;;;;;;-1.26;92.67;100156.56;4982891;28;20431;-85
2021/12/03 00:49:57;;;;;;;5.88;4.32;;;;;;;-1.26;92.30;100159.13;4999479;28;20057;-85
2021/12/03 00:52:23;;;;;;;9.85;3.97;;;;;;;-1.25;92.44;100149.72;4993521;28;20060;-85
2021/12/03 00:54:50;;;;;;;6.68;4.30;;;;;;;-1.24;92.25;100156.59;5018825;28;20097;-85
2021/12/03 00:57:17;;;;;;;8.48;3.53;;;;;;;-1.26;92.80;100156.56;5022067;28;20045;-84
2021/12/03 00:59:44;;;;;;;6.30;3.72;;;;;;;-1.27;92.19;100159.94;5033124;28;20068;-85
2021/12/03 01:02:10;;;;;;;7.10;4.45;;;;;;;-1.27;92.51;100157.38;4993827;28;20037;-85
2021/12/03 01:04:37;;;;;;;6.32;3.65;;;;;;;-1.24;92.39;100157.50;5009323;28;20077;-85
2021/12/03 01:07:04;;;;;;;6.05;3.63;;;;;;;-1.26;92.72;100163.41;5016738;28;20188;-85
2021/12/03 01:09:31;;;;;;;6.80;4.20;;;;;;;-1.21;92.64;100160.13;5016653;28;20049;-85
2021/12/03 01:11:59;;;;;;;7.18;3.75;;;;;;;-1.19;92.77;100170.44;5013433;28;20045;-85
2021/12/03 01:14:27;;;;;;;7.30;3.45;;;;;;;-1.24;92.78;100178.03;5017620;28;20053;-86
2021/12/03 01:16:54;;;;;;;5.30;3.63;;;;;;;-1.28;93.37;100170.16;4991195;28;20049;-85
2021/12/03 01:19:21;;;;;;;6.68;4.93;;;;;;;-1.28;93.35;100177.88;4996180;28;20123;-84
2021/12/03 01:21:48;;;;;;;8.55;3.65;;;;;;;-1.26;93.56;100176.25;5013302;28;20522;-85
2021/12/03 01:24:15;;;;;;;4.88;3.35;;;;;;;-1.22;93.31;100183.22;4996855;28;20100;-85
2021/12/03 01:26:44;;;;;;;5.95;3.22;;;;;;;-1.28;93.72;100186.44;4994839;28;20045;-85
2021/12/03 01:29:11;;;;;;;5.45;3.38;;;;;;;-1.25;94.28;100194.25;5012006;28;20133;-84
2021/12/03 01:31:38;;;;;;;9.20;5.10;;;;;;;-1.19;94.29;100191.00;5030954;28;20038;-85
2021/12/03 01:34:05;;;;;;;6.07;3.53;;;;;;;-1.16;94.04;100191.13;5013518;28;20041;-85
2021/12/03 01:36:32;;;;;;;8.45;4.60;;;;;;;-1.08;93.66;100189.66;5028315;28;20413;-85
2021/12/03 01:38:58;;;;;;;11.38;3.92;;;;;;;-1.10;93.63;100190.41;5000761;28;20041;-85
2021/12/03 01:41:27;;;;;;;10.32;4.10;;;;;;;-1.10;94.03;100193.84;4995732;28;20049;-85
2021/12/03 01:43:59;;;;;;;8.27;4.22;;;;;;;-1.15;93.88;100186.84;5012003;28;20059;-85
2021/12/03 01:46:26;;;;;;;9.35;4.30;;;;;;;-1.20;94.70;100190.13;4998654;28;20052;-85
2021/12/03 01:48:53;;;;;;;7.03;4.45;;;;;;;-1.28;95.32;100183.00;5013347;28;20097;-85
2021/12/03 01:51:19;;;;;;;7.50;4.55;;;;;;;-1.30;95.71;100182.06;4976154;28;20046;-85
2021/12/03 01:53:46;;;;;;;8.75;4.72;;;;;;;-1.37;96.37;100186.16;4985298;28;20048;-85
2021/12/03 01:56:17;;;;;;;12.00;4.88;;;;;;;-1.46;96.74;100184.19;4990725;28;20101;-85
2021/12/03 01:58:47;;;;;;;10.98;5.82;;;;;;;-1.47;97.09;100186.69;4966099;28;20081;-85
2021/12/03 02:01:17;;;;;;;8.23;5.35;;;;;;;-1.47;97.77;100189.25;4979648;28;20125;-85
2021/12/03 02:03:49;;;;;;;10.63;5.63;;;;;;;-1.44;97.90;100190.22;4994471;28;20556;-85
2021/12/03 02:06:17;;;;;;;12.98;5.65;;;;;;;-1.40;97.61;100193.75;4977405;28;20519;-85
2021/12/03 02:08:44;;;;;;;10.77;5.60;;;;;;;-1.40;97.79;100197.19;4979050;28;20054;-85
2021/12/03 02:11:12;;;;;;;9.55;6.20;;;;;;;-1.40;97.54;100199.75;4979639;28;20049;-85
2021/12/03 02:13:39;;;;;;;9.13;5.03;;;;;;;-1.38;97.98;100202.41;4974358;28;20853;-85
2021/12/03 02:16:08;;;;;;;13.77;6.47;;;;;;;-1.40;97.78;100204.91;4978251;28;20049;-85
2021/12/03 02:18:35;;;;;;;12.15;6.57;;;;;;;-1.38;98.24;100203.25;4968198;28;20571;-85
2021/12/03 02:21:05;;;;;;;10.82;5.90;;;;;;;-1.36;97.96;100209.31;4973497;28;20050;-85
2021/12/03 02:23:33;;;;;;;9.68;5.60;;;;;;;-1.33;98.17;100208.53;4973820;28;20054;-85
2021/12/03 02:26:00;;;;;;;10.55;5.63;;;;;;;-1.32;98.23;100217.97;4988936;28;20145;-85
2021/12/03 02:28:31;;;;;;;12.63;5.57;;;;;;;-1.31;97.78;100216.31;4975280;28;20365;-85
2021/12/03 02:30:58;;;;;;;13.50;5.47;;;;;;;-1.38;98.06;100223.81;4998209;28;20054;-84
2021/12/03 02:33:25;;;;;;;11.18;5.93;;;;;;;-1.41;98.22;100217.69;4977132;28;20053;-85
2021/12/03 02:35:52;;;;;;;10.85;5.72;;;;;;;-1.34;98.65;100217.06;4982448;28;20232;-84
2021/12/03 02:38:23;;;;;;;10.30;6.30;;;;;;;-1.28;98.42;100222.38;4996023;28;20046;-85
2021/12/03 02:40:51;;;;;;;10.50;6.00;;;;;;;-1.25;98.28;100230.22;4984779;28;20053;-85
2021/12/03 02:43:18;;;;;;;15.75;6.35;;;;;;;-1.27;98.41;100220.72;4980142;28;20046;-85
2021/12/03 02:45:45;;;;;;;11.63;6.03;;;;;;;-1.27;98.46;100220.72;4979962;28;20081;-87
2021/12/03 02:48:12;;;;;;;10.38;6.57;;;;;;;-1.21;98.39;100213.22;4991081;28;20065;-85
2021/12/03 02:50:38;;;;;;;13.15;7.00;;;;;;;-1.18;98.70;100213.28;5027164;28;20053;-85
2021/12/03 02:53:05;;;;;;;14.10;7.03;;;;;;;-1.21;98.10;100211.50;5014471;28;20049;-85
2021/12/03 02:55:32;;;;;;;11.63;6.05;;;;;;;-1.24;98.44;100213.09;5016914;28;20096;-86
2021/12/03 02:57:59;;;;;;;11.95;6.82;;;;;;;-1.29;98.44;100218.09;4997442;28;20060;-85
2021/12/03 03:00:28;;;;;;;10.23;6.25;;;;;;;-1.29;98.73;100215.53;4998929;28;20935;-85
2021/12/03 03:02:56;;;;;;;12.43;7.20;;;;;;;-1.27;99.35;100211.31;4995923;28;20046;-85
2021/12/03 03:05:24;;;;;;;14.60;7.75;;;;;;;-1.28;99.60;100216.41;4997703;28;20052;-84
2021/12/03 03:07:52;;;;;;;16.00;8.20;;;;;;;-1.28;99.72;100218.97;4997305;28;20081;-85
2021/12/03 03:10:27;;;;;;;13.60;7.18;;;;;;;-1.25;99.77;100213.91;4995664;28;20065;-85
2021/12/03 03:12:55;;;;;;;19.92;9.00;;;;;;;-1.27;99.89;100225.84;4999553;28;20060;-85
2021/12/03 03:15:22;;;;;;;14.48;8.05;;;;;;;-1.30;99.97;100220.59;5018228;28;20073;-85
2021/12/03 03:17:50;;;;;;;12.90;7.55;;;;;;;-1.30;100.00;100218.03;5012489;28;20551;-84
2021/12/03 03:20:18;;;;;;;19.98;8.90;;;;;;;-1.30;100.00;100216.34;5016097;28;20044;-85
2021/12/03 03:22:47;;;;;;;17.75;9.25;;;;;;;-1.35;100.00;100216.19;4996353;28;20049;-85
2021/12/03 03:25:17;;;;;;;14.38;8.27;;;;;;;-1.40;100.00;100219.44;4996615;28;20056;-85
2021/12/03 03:27:44;;;;;;;20.73;9.35;;;;;;;-1.44;100.00;100209.91;5009817;28;20144;-85
2021/12/03 03:30:14;;;;;;;18.83;9.63;;;;;;;-1.45;100.00;100214.16;4997838;28;20132;-86
2021/12/03 03:32:42;;;;;;;19.10;9.63;;;;;;;-1.45;100.00;100220.97;5012025;28;20041;-85
2021/12/03 03:35:10;;;;;;;17.17;8.68;;;;;;;-1.46;100.00;100219.22;5010494;28;20045;-84
2021/12/03 03:37:38;;;;;;;20.55;9.52;;;;;;;-1.44;100.00;100218.47;4999070;28;20123;-84
2021/12/03 03:40:07;;;;;;;22.75;10.52;;;;;;;-1.42;100.00;100221.97;4999781;28;20057;-85
2021/12/03 03:42:34;;;;;;;17.42;9.85;;;;;;;-1.41;100.00;100215.13;5009474;28;20044;-85
2021/12/03 03:45:07;;;;;;;21.27;10.23;;;;;;;-1.40;100.00;100215.16;5014970;28;20330;-85
2021/12/03 03:47:34;;;;;;;18.38;10.25;;;;;;;-1.36;100.00;100227.28;5011350;28;20077;-85
2021/12/03 03:50:01;;;;;;;21.38;10.38;;;;;;;-1.38;100.00;100218.66;4997413;28;20155;-85
2021/12/03 03:52:29;;;;;;;15.40;9.85;;;;;;;-1.34;100.00;100223.06;4995003;28;20417;-85
2021/12/03 03:54:55;;;;;;;20.85;10.43;;;;;;;-1.28;100.00;100224.09;5028792;28;20124;-85
2021/12/03 03:57:24;;;;;;;16.58;9.85;;;;;;;-1.24;100.00;100224.25;4998024;28;20059;-85
2021/12/03 03:59:50;;;;;;;19.75;10.50;;;;;;;-1.23;100.00;100225.13;5029960;28;20103;-84
2021/12/03 04:02:17;;;;;;;22.95;12.48;;;;;;;-1.23;100.00;100220.84;5028340;28;20055;-84
2021/12/03 04:04:44;;;;;;;19.63;10.93;;;;;;;-1.27;100.00;100216.44;4992366;28;20055;-84
2021/12/03 04:07:10;;;;;;;24.85;10.18;;;;;;;-1.25;100.00;100217.38;4994565;28;20149;-84
2021/12/03 04:09:37;;;;;;;18.60;9.98;;;;;;;-1.28;100.00;100219.81;5032662;28;20063;-85
2021/12/03 04:12:04;;;;;;;19.95;11.23;;;;;;;-1.28;100.00;100218.97;5031420;28;20045;-85
2021/12/03 04:14:30;;;;;;;20.90;11.48;;;;;;;-1.29;100.00;100218.09;5007324;28;20049;-85
2021/12/03 04:16:57;;;;;;;22.20;11.30;;;;;;;-1.31;100.00;100217.16;5030670;28;20049;-85
2021/12/03 04:19:23;;;;;;;19.13;10.52;;;;;;;-1.29;100.00;100215.53;4999746;28;20042;-86
2021/12/03 04:21:50;;;;;;;22.17;11.02;;;;;;;-1.27;100.00;100221.56;5001801;28;20045;-85
2021/12/03 04:24:17;;;;;;;16.73;10.10;;;;;;;-1.33;100.00;100216.22;4995911;28;20047;-85
2021/12/03 04:26:44;;;;;;;19.75;11.18;;;;;;;-1.30;100.00;100224.06;4994104;28;20909;-85
2021/12/03 04:29:10;;;;;;;23.08;10.93;;;;;;;-1.29;100.00;100224.91;5030816;28;20114;-85
2021/12/03 04:31:37;;;;;;;15.68;9.40;;;;;;;-1.36;100.00;100239.25;4996546;28;20144;-85
2021/12/03 04:34:04;;;;;;;26.70;10.90;;;;;;;-1.37;100.00;100225.56;5030045;28;20053;-85
2021/12/03 04:36:30;;;;;;;23.75;10.73;;;;;;;-1.34;100.00;100222.22;4996903;28;20128;-85
2021/12/03 04:38:57;;;;;;;16.17;9.65;;;;;;;-1.31;100.00;100218.88;4996323;28;20127;-85
2021/12/03 04:41:25;;;;;;;19.80;10.23;;;;;;;-1.33;100.00;100213.66;4996914;28;20109;-83
2021/12/03 04:43:51;;;;;;;21.90;11.05;;;;;;;-1.27;100.00;100218.16;5025211;28;20045;-85
2021/12/03 04:46:19;;;;;;;22.58;12.20;;;;;;;-1.22;100.00;100208.88;5008406;28;20045;-85
2021/12/03 04:48:46;;;;;;;19.95;10.65;;;;;;;-1.18;100.00;100206.44;5013863;28;20115;-85
2021/12/03 04:51:13;;;;;;;23.60;11.05;;;;;;;-1.15;100.00;100222.78;4992468;28;20053;-85
2021/12/03 04:53:40;;;;;;;21.65;10.93;;;;;;;-1.10;100.00;100227.25;5015146;28;20153;-85
2021/12/03 04:56:09;;;;;;;19.80;10.23;;;;;;;-1.08;100.00;100215.34;4993501;28;20570;-85
2021/12/03 04:58:35;;;;;;;23.33;11.43;;;;;;;-1.06;100.00;100220.50;5009544;28;20057;-86
2021/12/03 05:01:03;;;;;;;18.20;10.20;;;;;;;-1.04;100.00;100218.88;4993429;28;20052;-87
2021/12/03 05:03:29;;;;;;;21.45;12.30;;;;;;;-1.05;100.00;100223.13;4997189;28;20045;-86
2021/12/03 05:06:00;;;;;;;18.85;10.02;;;;;;;-1.06;100.00;100226.50;4999587;28;20144;-86
2021/12/03 05:08:30;;;;;;;23.23;12.32;;;;;;;-1.09;100.00;100223.84;4995652;28;20053;-86
2021/12/03 05:10:58;;;;;;;19.58;10.65;;;;;;;-1.13;100.00;100221.13;4999676;28;20055;-85
2021/12/03 05:13:29;;;;;;;16.63;9.40;;;;;;;-1.17;100.00;100218.47;5016351;28;20130;-86
2021/12/03 05:15:56;;;;;;;20.00;10.32;;;;;;;-1.15;100.00;100220.22;5009837;28;20087;-85
2021/12/03 05:18:29;;;;;;;15.48;9.85;;;;;;;-1.09;100.00;100218.72;4991580;28;20094;-86
2021/12/03 05:21:00;;;;;;;20.63;10.65;;;;;;;-1.04;100.00;100216.31;4994331;28;20499;-86
2021/12/03 05:23:29;;;;;;;20.92;10.65;;;;;;;-0.99;100.00;100214.75;5008909;28;20049;-86
2021/12/03 05:25:56;;;;;;;21.27;9.70;;;;;;;-0.98;100.00;100213.03;5029372;28;20045;-86
2021/12/03 05:28:23;;;;;;;19.55;9.20;;;;;;;-0.99;100.00;100214.75;5005729;28;20128;-86
2021/12/03 05:30:50;;;;;;;18.77;10.00;;;;;;;-1.00;100.00;100219.00;5004825;28;20041;-86
2021/12/03 05:33:19;;;;;;;21.58;11.73;;;;;;;-0.98;100.00;100223.31;5027106;28;20657;-85
2021/12/03 05:35:46;;;;;;;16.40;9.68;;;;;;;-0.95;100.00;100221.72;5005241;28;20046;-85
2021/12/03 05:38:12;;;;;;;18.17;9.68;;;;;;;-0.92;100.00;100228.66;5009372;28;20042;-86
2021/12/03 05:40:39;;;;;;;20.80;10.50;;;;;;;-0.92;100.00;100224.38;5010128;28;20072;-86
2021/12/03 05:43:06;;;;;;;22.77;11.20;;;;;;;-0.90;100.00;100220.16;5027701;28;20083;-86
2021/12/03 05:45:36;;;;;;;24.67;10.52;;;;;;;-0.91;100.00;100222.66;5010902;28;20142;-86
2021/12/03 05:48:03;;;;;;;22.52;11.40;;;;;;;-0.89;100.00;100227.03;5005434;28;20152;-86
2021/12/03 05:50:30;;;;;;;24.40;10.95;;;;;;;-0.86;100.00;100227.13;5013506;28;20045;-87
2021/12/03 05:52:58;;;;;;;21.73;10.82;;;;;;;-0.84;100.00;100229.75;5030198;28;20053;-86
2021/12/03 05:55:25;;;;;;;28.10;13.27;;;;;;;-0.84;100.00;100230.59;5010823;28;20057;-86
2021/12/03 05:57:52;;;;;;;22.10;11.02;;;;;;;-0.82;100.00;100233.25;4992943;28;20085;-86
2021/12/03 06:00:37;;;;;;;20.60;10.95;;;;;;;-0.85;100.00;100228.88;5006025;28;20052;-86
2021/12/03 06:03:05;;;;;;;22.48;11.00;;;;;;;-0.84;100.00;100232.31;4996528;28;20400;-86
2021/12/03 06:05:33;;;;;;;22.17;11.77;;;;;;;-0.80;100.00;100234.16;5015023;28;20049;-86
2021/12/03 06:07:59;;;;;;;27.70;13.30;;;;;;;-0.77;100.00;100248.78;4999152;28;20056;-85
2021/12/03 06:10:26;;;;;;;24.92;13.15;;;;;;;-0.72;100.00;100243.00;5018220;28;20052;-86
2021/12/03 06:12:54;;;;;;;22.52;11.73;;;;;;;-0.68;100.00;100246.50;4994194;28;20048;-85
2021/12/03 06:15:21;;;;;;;20.52;11.68;;;;;;;-0.68;100.00;100252.53;5032060;28;20045;-85
2021/12/03 06:17:48;;;;;;;23.15;12.10;;;;;;;-0.67;100.00;100254.25;4998112;28;20140;-85
2021/12/03 06:20:16;;;;;;;24.65;12.18;;;;;;;-0.64;100.00;100245.75;5031033;28;20124;-86
2021/12/03 06:22:42;;;;;;;25.33;13.70;;;;;;;-0.64;100.00;100255.19;4995235;28;20553;-86
2021/12/03 06:25:12;;;;;;;23.92;13.05;;;;;;;-0.64;100.00;100250.03;5013962;28;20045;-86
2021/12/03 06:27:39;;;;;;;25.17;13.27;;;;;;;-0.67;100.00;100256.81;5012628;28;20076;-87
2021/12/03 06:30:10;;;;;;;26.58;13.60;;;;;;;-0.71;100.00;100244.72;4995741;28;20539;-88
2021/12/03 06:32:40;;;;;;;22.20;11.93;;;;;;;-0.74;100.00;100256.63;5016599;28;20103;-86
2021/12/03 06:35:10;;;;;;;22.40;11.48;;;;;;;-0.71;100.00;100266.97;5055785;28;20029;-86
2021/12/03 06:37:38;;;;;;;25.88;11.20;;;;;;;-0.67;100.00;100263.69;5036024;28;20049;-87
2021/12/03 06:40:12;;;;;;;21.25;12.98;;;;;;;-0.60;100.00;100264.72;5022035;28;20053;-86
2021/12/03 06:42:39;;;;;;;21.92;10.63;;;;;;;-0.51;100.00;100250.47;5018563;28;20091;-86
2021/12/03 06:45:06;;;;;;;20.50;10.50;;;;;;;-0.51;100.00;100253.03;5018267;28;20135;-86
2021/12/03 06:47:35;;;;;;;22.70;9.77;;;;;;;-0.50;100.00;100264.19;5035362;28;20507;-86
2021/12/03 06:50:03;;;;;;;20.70;11.82;;;;;;;-0.43;100.00;100258.41;5014379;28;20038;-88
2021/12/03 06:52:32;;;;;;;27.10;13.27;;;;;;;-0.31;100.00;100259.56;4998821;28;20136;-86
2021/12/03 06:55:03;;;;;;;24.15;11.07;;;;;;;-0.24;100.00;100267.50;5034748;28;20060;-86
2021/12/03 06:57:30;;;;;;;20.25;9.88;;;;;;;-0.18;100.00;100264.25;5013089;28;20116;-86
2021/12/03 07:00:01;;;;;;;24.98;11.30;;;;;;;-0.18;100.00;100251.38;4999816;28;20077;-86
2021/12/03 07:02:27;;;;;;;17.52;8.77;;;;;;;-0.13;100.00;100251.50;4985288;28;20077;-86
2021/12/03 07:04:54;;;;;;;22.80;11.05;;;;;;;-0.12;100.00;100261.81;5014238;28;20056;-86
2021/12/03 07:07:21;;;;;;;24.60;13.55;;;;;;;-0.12;100.00;100260.97;4999597;28;20049;-86
2021/12/03 07:09:48;;;;;;;19.85;9.98;;;;;;;-0.11;100.00;100252.44;5005348;28;20102;-86
2021/12/03 07:12:15;;;;;;;24.25;12.48;;;;;;;-0.06;100.00;100256.00;5016646;28;20054;-86
2021/12/03 07:14:42;;;;;;;18.85;10.40;;;;;;;0.00;100.00;100243.31;5004875;28;20138;-86
2021/12/03 07:17:09;;;;;;;21.48;10.27;;;;;;;0.07;100.00;100252.94;4996112;28;20152;-86
2021/12/03 07:19:35;;;;;;;19.35;10.73;;;;;;;0.06;100.00;100245.16;5002344;28;20143;-87
2021/12/03 07:22:02;;;;;;;23.58;12.00;;;;;;;0.04;100.00;100245.13;5027791;28;20051;-86
2021/12/03 07:24:29;;;;;;;26.42;12.82;;;;;;;0.04;100.00;100247.72;5000538;28;20037;-86
2021/12/03 07:26:55;;;;;;;24.48;12.10;;;;;;;0.08;100.00;100259.81;4996713;28;20262;-87
2021/12/03 07:29:22;;;;;;;22.90;10.85;;;;;;;0.18;99.99;100266.06;4995408;28;20049;-87
2021/12/03 07:31:48;;;;;;;18.95;10.38;;;;;;;0.21;100.00;100255.88;5011020;28;20133;-86
2021/12/03 07:34:15;;;;;;;20.25;12.32;;;;;;;0.23;99.65;100261.06;5000628;28;20051;-87
2021/12/03 07:36:42;;;;;;;27.02;12.07;;;;;;;0.30;99.37;100260.38;5012372;28;20041;-86
2021/12/03 07:39:09;;;;;;;23.02;11.18;;;;;;;0.31;99.23;100265.59;5012258;28;20050;-87
2021/12/03 07:41:39;;;;;;;18.85;10.20;;;;;;;0.36;98.64;100257.97;5005059;28;20390;-86
2021/12/03 07:44:06;;;;;;;19.38;9.82;;;;;;;0.38;98.98;100260.59;5030076;28;20467;-86
2021/12/03 07:46:33;;;;;;;20.88;10.35;;;;;;;0.44;98.76;100263.31;5000138;28;20034;-87
2021/12/03 07:48:59;;;;;;;19.27;9.68;;;;;;;0.47;98.30;100259.13;5048262;28;20076;-87
2021/12/03 07:51:26;;;;;;;18.17;11.18;;;;;;;0.52;98.39;100254.09;5036538;28;20041;-86
2021/12/03 07:53:53;;;;;;;16.60;9.95;;;;;;;0.56;98.12;100257.63;5029317;28;20044;-86
2021/12/03 07:56:20;;;;;;;21.08;10.13;;;;;;;0.59;97.95;100258.56;5035157;28;20052;-85
2021/12/03 07:58:47;;;;;;;18.85;10.20;;;;;;;0.61;97.68;100249.19;5040157;28;20048;-85
2021/12/03 08:01:13;;;;;;;19.95;9.15;;;;;;;0.68;97.31;100254.47;5035445;28;20052;-86
2021/12/03 08:03:40;;;;;;;18.50;9.95;;;;;;;0.68;97.46;100273.41;5017977;28;20418;-86
2021/12/03 08:06:09;;;;;;;21.25;10.00;;;;;;;0.69;97.16;100259.66;5016742;28;20064;-86
2021/12/03 08:08:38;;;;;;;20.02;11.52;;;;;;;0.73;97.18;100263.19;5036411;28;20293;-85
2021/12/03 08:11:05;;;;;;;18.83;10.48;;;;;;;0.75;96.35;100264.09;5041951;28;20052;-86
2021/12/03 08:13:33;;;;;;;16.35;10.73;;;;;;;0.75;96.78;100256.38;5037677;28;20049;-84
2021/12/03 08:16:00;;;;;;;16.35;9.60;;;;;;;0.77;97.02;100262.41;5022368;28;20049;-86
2021/12/03 08:18:27;;;;;;;17.30;10.30;;;;;;;0.79;96.75;100255.63;5014373;28;20129;-85
2021/12/03 08:20:54;;;;;;;19.00;10.63;;;;;;;0.78;96.49;100254.75;5034330;28;20486;-86
2021/12/03 08:23:21;;;;;;;13.02;8.65;;;;;;;0.79;96.71;100255.63;5035196;28;20507;-86
2021/12/03 08:25:48;;;;;;;20.00;10.98;;;;;;;0.81;96.30;100259.13;5019349;28;20491;-84
2021/12/03 08:28:14;;;;;;;18.67;9.23;;;;;;;0.85;96.23;100260.94;5033970;28;20052;-85
2021/12/03 08:30:41;;;;;;;18.05;9.55;;;;;;;0.91;95.65;100265.34;5035866;28;20040;-86
2021/12/03 08:33:08;;;;;;;18.45;10.63;;;;;;;0.83;95.53;100260.00;5018143;28;20052;-86
2021/12/03 08:35:35;;;;;;;13.27;8.55;;;;;;;0.86;95.73;100266.94;5016477;28;20049;-86
2021/12/03 08:38:02;;;;;;;16.60;10.18;;;;;;;0.89;95.63;100256.72;5019059;28;20048;-86
2021/12/03 08:40:29;;;;;;;17.50;9.45;;;;;;;0.87;95.35;100254.09;5054007;28;20069;-86
2021/12/03 08:42:55;;;;;;;18.35;11.02;;;;;;;0.79;95.33;100256.47;5017370;28;20060;-86
2021/12/03 08:45:22;;;;;;;19.45;9.93;;;;;;;0.72;95.61;100252.03;5036237;28;20037;-85
2021/12/03 08:47:53;;;;;;;18.00;9.52;;;;;;;0.70;96.22;100260.53;5029862;28;20071;-86
2021/12/03 08:50:29;;;;;;;15.40;9.55;;;;;;;0.72;96.34;100270.06;5021821;28;20033;-86
2021/12/03 08:55:44;;;;;;;17.05;9.15;;;;;;;0.88;95.39;100273.00;5056521;28;20041;-85
2021/12/03 08:58:13;;;;;;;18.58;10.27;;;;;;;0.93;94.69;100259.41;5014894;28;20076;-84
2021/12/03 09:00:40;;;;;;;18.88;9.32;;;;;;;1.02;94.52;100279.38;5016284;28;20053;-85
2021/12/03 09:03:07;;;;;;;16.58;8.93;;;;;;;1.09;94.65;100275.22;5015047;28;20041;-85
2021/12/03 09:05:37;;;;;;;16.02;8.77;;;;;;;1.12;93.93;100270.13;5014518;28;20401;-86
2021/12/03 09:08:04;;;;;;;17.83;9.52;;;;;;;1.23;93.63;100278.13;5014762;28;20051;-85
2021/12/03 09:10:31;;;;;;;18.60;9.85;;;;;;;1.21;93.34;100272.91;5008505;28;20056;-84
2021/12/03 09:12:57;;;;;;;16.98;10.02;;;;;;;1.25;92.98;100260.97;5014464;28;20052;-86
2021/12/03 09:15:30;;;;;;;20.80;10.20;;;;;;;1.27;93.39;100256.72;5035448;28;20789;-86
2021/12/03 09:21:07;;;;;;;18.90;8.35;;;;;;;1.26;93.52;100255.84;5163603;27;20384;-85
2021/12/03 09:23:40;;;;;;;18.83;9.75;;;;;;;1.18;93.00;100251.38;5121817;27;20051;-85
2021/12/03 09:26:09;;;;;;;24.25;10.20;;;;;;;1.11;93.56;100258.09;5121673;27;20133;-85
2021/12/03 09:28:39;;;;;;;16.10;9.07;;;;;;;1.09;93.86;100254.59;5134377;27;20039;-85
2021/12/03 09:31:06;;;;;;;13.10;8.60;;;;;;;1.06;94.12;100254.53;5108512;27;20036;-85
2021/12/03 09:33:36;;;;;;;20.02;9.18;;;;;;;1.08;94.33;100247.69;5084802;28;20071;-85
2021/12/03 09:36:04;;;;;;;17.08;8.75;;;;;;;1.10;94.03;100246.91;5098644;28;20056;-85
2021/12/03 09:38:33;;;;;;;17.60;10.43;;;;;;;1.22;93.00;100242.88;5085030;28;20082;-84
2021/12/03 09:41:07;;;;;;;15.55;7.93;;;;;;;1.31;92.81;100253.38;5082162;28;20062;-85
2021/12/03 09:43:41;;;;;;;21.60;8.00;;;;;;;1.47;92.07;100250.31;5098254;28;20058;-85
2021/12/03 09:46:16;;;;;;;14.75;8.00;;;;;;;1.60;91.68;100254.03;5080626;28;20046;-84
2021/12/03 09:49:03;;;;;;;14.23;7.47;;;;;;;1.73;90.92;100256.84;5098617;28;20058;-84
2021/12/03 09:51:49;;;;;;;15.40;7.47;;;;;;;1.87;89.86;100246.81;5083675;28;20467;-84
2021/12/03 09:54:24;;;;;;;13.70;8.85;;;;;;;1.89;88.86;100246.00;5117096;27;20067;-84
2021/12/03 09:56:56;;;;;;;16.50;7.85;;;;;;;1.98;88.52;100243.59;5084783;28;20514;-85
2021/12/03 09:59:55;;;;;;;16.27;7.80;;;;;;;2.10;88.19;100234.31;5065711;28;20047;-84
2021/12/03 10:02:33;;;;;;;12.88;8.88;;;;;;;2.26;87.41;100230.34;5100593;28;20051;-84
2021/12/03 10:13:45;;;;;;;13.68;8.20;;;;;;;2.36;87.29;100203.84;5078777;28;20044;-85
2021/12/03 10:16:33;;;;;;;15.00;8.77;;;;;;;2.44;86.79;100193.63;5075889;28;20035;-85
2021/12/03 10:19:21;;;;;;;15.98;8.02;;;;;;;2.41;85.90;100194.44;5088129;28;20044;-84
2021/12/03 10:22:10;;;;;;;16.77;9.35;;;;;;;2.43;86.46;100189.28;5074029;27;20109;-85
2021/12/03 10:27:45;;;;;;;14.57;8.10;;;;;;;2.45;86.44;100191.06;5070027;28;20302;-84
2021/12/03 10:30:34;;;;;;;16.25;8.57;;;;;;;2.47;86.38;100191.09;5082419;28;20047;-85
2021/12/03 10:33:46;;;;;;;24.13;9.38;;;;;;;2.61;86.55;100184.41;5082354;28;20628;-84
2021/12/03 10:42:09;;;;;;;13.52;7.38;;;;;;;2.80;84.82;100166.59;5061377;28;20060;-85
2021/12/03 10:44:52;;;;;;;13.70;7.97;;;;;;;2.76;84.28;100167.41;5072898;28;20036;-85
2021/12/03 10:47:38;;;;;;;15.23;7.43;;;;;;;2.72;85.19;100175.97;5051787;28;20047;-84
2021/12/03 10:50:22;;;;;;;14.02;7.75;;;;;;;2.73;85.06;100162.22;5074156;28;20067;-86
2021/12/03 10:52:59;;;;;;;13.18;7.72;;;;;;;2.74;85.33;100156.19;5074301;27;20502;-85
2021/12/03 11:29:48;;;;;;;14.40;8.43;;;;;;;2.55;87.76;100136.94;5055483;28;20049;-85
2021/12/03 11:59:12;;;;;;;21.52;9.98;;;;;;;2.54;89.63;100096.44;5083538;28;20100;-84
2021/12/03 12:37:48;;;;;;;11.38;4.95;;;;;;;2.89;78.56;100052.13;5044688;28;20152;-85
2021/12/03 13:17:34;;;;;;;13.60;4.38;;;;;;;3.30;74.17;100023.31;5071759;28;20036;-87
2021/12/03 13:20:33;;;;;;;4.65;2.53;;;;;;;3.27;73.56;100012.91;5073082;28;20085;-86
2021/12/03 14:05:06;;;;;;;10.13;3.08;;;;;;;3.02;74.63;99931.63;5057096;28;20059;-86
2021/12/03 14:07:43;;;;;;;5.30;2.63;;;;;;;3.05;74.61;99921.31;5073028;28;20056;-85
2021/12/03 14:10:46;;;;;;;5.78;2.40;;;;;;;3.06;74.78;99910.97;5080458;28;20139;-86
2021/12/03 14:36:32;;;;;;;7.28;2.78;;;;;;;2.88;75.69;99905.63;5062770;28;20455;-85
2021/12/03 14:39:26;;;;;;;9.13;2.10;;;;;;;2.87;75.58;99911.63;5077995;28;20105;-85
2021/12/03 14:42:09;;;;;;;4.47;1.48;;;;;;;2.80;76.17;99923.63;5065413;28;20052;-86
2021/12/03 14:44:57;;;;;;;5.55;2.95;;;;;;;2.78;76.51;99933.09;5073888;28;20521;-85
2021/12/03 14:50:26;;;;;;;7.75;1.58;;;;;;;2.68;76.67;99906.28;5057747;28;20043;-85
2021/12/03 14:55:52;;;;;;;6.72;1.73;;;;;;;2.64;77.13;99905.38;5071846;28;20411;-85
2021/12/03 14:58:20;;;;;;;13.15;2.08;;;;;;;2.64;76.90;99894.19;5059583;28;20055;-85
2021/12/03 15:00:55;;;;;;;5.05;1.90;;;;;;;2.64;77.11;99889.00;5061564;28;20044;-85
2021/12/03 15:03:41;;;;;;;4.65;2.08;;;;;;;2.65;76.92;99880.41;5072944;28;20040;-85
2021/12/03 15:06:12;;;;;;;5.68;2.70;;;;;;;2.66;76.83;99882.16;5076154;28;20048;-86
2021/12/03 15:08:48;;;;;;;3.95;2.00;;;;;;;2.62;76.49;99882.94;5055645;28;20526;-84
2021/12/03 15:25:36;;;;;;;;;;;;;;;2.56;76.29;99864.81;5074810;28;20040;-86
2021/12/03 15:33:52;;;;;;;5.47;2.50;;;;;;;2.52;76.88;99857.88;5042653;28;20056;-85
2021/12/03 15:36:25;;;;;;;5.55;2.13;;;;;;;2.53;76.82;99863.06;5062482;28;20044;-86